Lebanon, Oregon
Current Conditions -  °F | °C
As of 3:15 AM on Thursday 23 Oct 2014 (Local Time) from KCVO Reporting Station
Overcast Overcast  
Wind Chill: 57°   Ceiling: 3700
Heat Index: 57°   Visibility: 10mi
Dew Point: 54°   Wind: 7mph
Humidity: 88%   Direction: 140°SE
Pressure: 29.79"   Gusts: NA
Location:  44.54°N, 122.9°W
Report Text: KCVO 231015Z AUTO 14006KT 10SM SCT026 BKN037 OVC042 14/12 A2979 RMK AO1
Loading
Personal Weather Stations






























Interactive Weather Map
Tropical Storm Tracking
New forecast layout! Learn more

10-Day Weather Forecast

Advertisements
Track Severe Weather on mobile